sensor_id;sensor_type;location;lat;lon;timestamp;P1;durP1;ratioP1;P2;durP2;ratioP2
18754;SDS011;35061;47.664;9.166;2023-04-30T00:00:15;4.93;;;3.72;;
18754;SDS011;35061;47.664;9.166;2023-04-30T00:02:43;4.20;;;3.80;;
18754;SDS011;35061;47.664;9.166;2023-04-30T00:05:11;4.60;;;4.10;;
18754;SDS011;35061;47.664;9.166;2023-04-30T00:07:39;6.97;;;4.03;;
18754;SDS011;35061;47.664;9.166;2023-04-30T00:10:09;5.57;;;4.32;;
18754;SDS011;35061;47.664;9.166;2023-04-30T00:12:37;4.45;;;3.72;;
18754;SDS011;35061;47.664;9.166;2023-04-30T00:15:05;5.72;;;4.10;;
18754;SDS011;35061;47.664;9.166;2023-04-30T00:17:34;4.25;;;3.85;;
18754;SDS011;35061;47.664;9.166;2023-04-30T00:20:02;4.75;;;3.72;;
18754;SDS011;35061;47.664;9.166;2023-04-30T00:22:30;4.40;;;4.00;;
18754;SDS011;35061;47.664;9.166;2023-04-30T00:25:00;5.22;;;4.18;;
18754;SDS011;35061;47.664;9.166;2023-04-30T00:27:28;4.93;;;3.95;;
18754;SDS011;35061;47.664;9.166;2023-04-30T00:29:57;4.37;;;3.83;;
18754;SDS011;35061;47.664;9.166;2023-04-30T00:32:25;6.20;;;3.80;;
18754;SDS011;35061;47.664;9.166;2023-04-30T00:34:53;4.78;;;3.87;;
18754;SDS011;35061;47.664;9.166;2023-04-30T00:37:21;5.20;;;4.20;;
18754;SDS011;35061;47.664;9.166;2023-04-30T00:39:49;4.87;;;3.92;;
18754;SDS011;35061;47.664;9.166;2023-04-30T00:42:17;4.70;;;4.15;;
18754;SDS011;35061;47.664;9.166;2023-04-30T00:44:45;4.47;;;4.07;;
18754;SDS011;35061;47.664;9.166;2023-04-30T00:47:13;5.00;;;4.37;;
18754;SDS011;35061;47.664;9.166;2023-04-30T00:49:41;5.03;;;4.22;;
18754;SDS011;35061;47.664;9.166;2023-04-30T00:52:09;4.53;;;3.87;;
18754;SDS011;35061;47.664;9.166;2023-04-30T00:54:37;4.22;;;3.83;;
18754;SDS011;35061;47.664;9.166;2023-04-30T00:57:05;4.68;;;4.07;;
18754;SDS011;35061;47.664;9.166;2023-04-30T00:59:36;4.82;;;4.18;;
18754;SDS011;35061;47.664;9.166;2023-04-30T01:02:05;5.28;;;4.12;;
18754;SDS011;35061;47.664;9.166;2023-04-30T01:04:34;5.55;;;4.37;;
18754;SDS011;35061;47.664;9.166;2023-04-30T01:07:02;5.03;;;4.22;;
18754;SDS011;35061;47.664;9.166;2023-04-30T01:09:30;5.37;;;4.45;;
18754;SDS011;35061;47.664;9.166;2023-04-30T01:12:04;4.57;;;4.18;;
18754;SDS011;35061;47.664;9.166;2023-04-30T01:17:10;5.80;;;4.40;;
18754;SDS011;35061;47.664;9.166;2023-04-30T01:19:47;4.37;;;3.95;;
18754;SDS011;35061;47.664;9.166;2023-04-30T01:25:06;5.12;;;4.32;;
18754;SDS011;35061;47.664;9.166;2023-04-30T01:30:30;5.70;;;5.00;;
18754;SDS011;35061;47.664;9.166;2023-04-30T01:32:58;5.35;;;4.85;;
18754;SDS011;35061;47.664;9.166;2023-04-30T01:35:42;5.40;;;4.68;;
18754;SDS011;35061;47.664;9.166;2023-04-30T01:44:36;4.90;;;4.40;;
18754;SDS011;35061;47.664;9.166;2023-04-30T01:47:29;6.43;;;4.70;;
18754;SDS011;35061;47.664;9.166;2023-04-30T01:50:09;7.47;;;4.80;;
18754;SDS011;35061;47.664;9.166;2023-04-30T01:52:41;6.05;;;4.50;;
18754;SDS011;35061;47.664;9.166;2023-04-30T01:55:15;7.00;;;5.07;;
18754;SDS011;35061;47.664;9.166;2023-04-30T01:57:59;8.20;;;5.03;;
18754;SDS011;35061;47.664;9.166;2023-04-30T02:00:28;6.00;;;4.95;;
18754;SDS011;35061;47.664;9.166;2023-04-30T02:02:59;5.82;;;4.53;;
18754;SDS011;35061;47.664;9.166;2023-04-30T02:05:27;5.93;;;4.90;;
18754;SDS011;35061;47.664;9.166;2023-04-30T02:07:55;6.30;;;5.10;;
18754;SDS011;35061;47.664;9.166;2023-04-30T02:10:24;6.68;;;5.93;;
18754;SDS011;35061;47.664;9.166;2023-04-30T02:12:53;6.53;;;5.30;;
18754;SDS011;35061;47.664;9.166;2023-04-30T02:15:21;5.47;;;4.57;;
18754;SDS011;35061;47.664;9.166;2023-04-30T02:17:49;6.80;;;5.10;;
18754;SDS011;35061;47.664;9.166;2023-04-30T02:20:17;6.05;;;5.45;;
18754;SDS011;35061;47.664;9.166;2023-04-30T02:22:45;8.18;;;5.60;;
18754;SDS011;35061;47.664;9.166;2023-04-30T02:25:13;6.53;;;5.05;;
18754;SDS011;35061;47.664;9.166;2023-04-30T02:27:41;5.45;;;4.30;;
18754;SDS011;35061;47.664;9.166;2023-04-30T02:30:09;6.37;;;4.32;;
18754;SDS011;35061;47.664;9.166;2023-04-30T02:32:37;6.40;;;5.60;;
18754;SDS011;35061;47.664;9.166;2023-04-30T02:35:05;5.65;;;4.35;;
18754;SDS011;35061;47.664;9.166;2023-04-30T02:37:34;7.03;;;4.03;;
18754;SDS011;35061;47.664;9.166;2023-04-30T02:40:02;7.07;;;4.15;;
18754;SDS011;35061;47.664;9.166;2023-04-30T02:42:30;6.53;;;4.72;;
18754;SDS011;35061;47.664;9.166;2023-04-30T02:44:58;5.03;;;4.22;;
18754;SDS011;35061;47.664;9.166;2023-04-30T02:47:26;6.43;;;4.32;;
18754;SDS011;35061;47.664;9.166;2023-04-30T02:49:54;6.82;;;4.50;;
18754;SDS011;35061;47.664;9.166;2023-04-30T02:52:22;5.35;;;4.50;;
18754;SDS011;35061;47.664;9.166;2023-04-30T02:54:50;8.50;;;4.97;;
18754;SDS011;35061;47.664;9.166;2023-04-30T02:57:18;5.72;;;4.07;;
18754;SDS011;35061;47.664;9.166;2023-04-30T02:59:46;4.70;;;4.00;;
18754;SDS011;35061;47.664;9.166;2023-04-30T03:02:14;6.03;;;4.30;;
18754;SDS011;35061;47.664;9.166;2023-04-30T03:04:42;4.62;;;4.22;;
18754;SDS011;35061;47.664;9.166;2023-04-30T03:07:10;5.95;;;4.32;;
18754;SDS011;35061;47.664;9.166;2023-04-30T03:09:38;5.90;;;4.47;;
18754;SDS011;35061;47.664;9.166;2023-04-30T03:12:05;5.00;;;4.18;;
18754;SDS011;35061;47.664;9.166;2023-04-30T03:14:34;4.90;;;3.42;;
18754;SDS011;35061;47.664;9.166;2023-04-30T03:17:01;4.28;;;3.83;;
18754;SDS011;35061;47.664;9.166;2023-04-30T03:19:29;5.28;;;4.25;;
18754;SDS011;35061;47.664;9.166;2023-04-30T03:21:58;5.10;;;3.92;;
18754;SDS011;35061;47.664;9.166;2023-04-30T03:24:26;4.68;;;3.90;;
18754;SDS011;35061;47.664;9.166;2023-04-30T03:26:54;4.80;;;3.92;;
18754;SDS011;35061;47.664;9.166;2023-04-30T03:29:22;4.60;;;4.15;;
18754;SDS011;35061;47.664;9.166;2023-04-30T03:31:50;4.20;;;3.75;;
18754;SDS011;35061;47.664;9.166;2023-04-30T03:34:18;5.18;;;3.83;;
18754;SDS011;35061;47.664;9.166;2023-04-30T03:36:46;4.25;;;3.65;;
18754;SDS011;35061;47.664;9.166;2023-04-30T03:39:14;3.75;;;3.40;;
18754;SDS011;35061;47.664;9.166;2023-04-30T03:41:42;5.10;;;4.37;;
18754;SDS011;35061;47.664;9.166;2023-04-30T03:44:10;5.57;;;3.83;;
18754;SDS011;35061;47.664;9.166;2023-04-30T03:46:42;4.72;;;4.15;;
18754;SDS011;35061;47.664;9.166;2023-04-30T03:49:10;4.97;;;3.45;;
18754;SDS011;35061;47.664;9.166;2023-04-30T03:51:38;5.60;;;4.32;;
18754;SDS011;35061;47.664;9.166;2023-04-30T03:54:08;5.45;;;4.47;;
18754;SDS011;35061;47.664;9.166;2023-04-30T03:56:36;5.22;;;4.72;;
18754;SDS011;35061;47.664;9.166;2023-04-30T03:59:04;5.25;;;4.03;;
18754;SDS011;35061;47.664;9.166;2023-04-30T04:01:32;4.90;;;3.72;;
18754;SDS011;35061;47.664;9.166;2023-04-30T04:04:00;5.07;;;4.30;;
18754;SDS011;35061;47.664;9.166;2023-04-30T04:06:28;5.40;;;4.32;;
18754;SDS011;35061;47.664;9.166;2023-04-30T04:08:57;5.55;;;3.95;;
18754;SDS011;35061;47.664;9.166;2023-04-30T04:11:25;5.20;;;4.70;;
18754;SDS011;35061;47.664;9.166;2023-04-30T04:13:53;5.05;;;4.05;;
18754;SDS011;35061;47.664;9.166;2023-04-30T04:16:22;5.47;;;3.97;;
18754;SDS011;35061;47.664;9.166;2023-04-30T04:18:50;4.15;;;3.72;;
18754;SDS011;35061;47.664;9.166;2023-04-30T04:21:18;5.25;;;4.05;;
18754;SDS011;35061;47.664;9.166;2023-04-30T04:23:48;5.03;;;4.03;;
18754;SDS011;35061;47.664;9.166;2023-04-30T04:26:16;4.78;;;4.35;;
18754;SDS011;35061;47.664;9.166;2023-04-30T04:28:46;4.35;;;3.90;;
18754;SDS011;35061;47.664;9.166;2023-04-30T04:31:14;5.37;;;4.40;;
18754;SDS011;35061;47.664;9.166;2023-04-30T04:33:43;5.32;;;4.78;;
18754;SDS011;35061;47.664;9.166;2023-04-30T04:36:11;6.97;;;4.90;;
18754;SDS011;35061;47.664;9.166;2023-04-30T04:38:39;6.28;;;4.57;;
18754;SDS011;35061;47.664;9.166;2023-04-30T04:41:07;5.95;;;5.35;;
18754;SDS011;35061;47.664;9.166;2023-04-30T04:43:35;6.65;;;5.32;;
18754;SDS011;35061;47.664;9.166;2023-04-30T04:46:04;4.78;;;4.28;;
18754;SDS011;35061;47.664;9.166;2023-04-30T04:48:32;5.45;;;4.35;;
18754;SDS011;35061;47.664;9.166;2023-04-30T04:51:00;5.37;;;4.87;;
18754;SDS011;35061;47.664;9.166;2023-04-30T04:53:28;5.05;;;4.47;;
18754;SDS011;35061;47.664;9.166;2023-04-30T04:55:58;5.87;;;4.78;;
18754;SDS011;35061;47.664;9.166;2023-04-30T04:58:25;5.97;;;4.82;;
18754;SDS011;35061;47.664;9.166;2023-04-30T05:00:54;7.60;;;5.10;;
18754;SDS011;35061;47.664;9.166;2023-04-30T05:03:23;6.55;;;4.82;;
18754;SDS011;35061;47.664;9.166;2023-04-30T05:05:51;6.70;;;5.22;;
18754;SDS011;35061;47.664;9.166;2023-04-30T05:08:19;5.90;;;5.30;;
18754;SDS011;35061;47.664;9.166;2023-04-30T05:10:48;6.53;;;4.70;;
18754;SDS011;35061;47.664;9.166;2023-04-30T05:13:15;6.65;;;5.28;;
18754;SDS011;35061;47.664;9.166;2023-04-30T05:15:43;5.95;;;5.10;;
18754;SDS011;35061;47.664;9.166;2023-04-30T05:18:11;7.15;;;5.90;;
18754;SDS011;35061;47.664;9.166;2023-04-30T05:20:39;6.25;;;5.47;;
18754;SDS011;35061;47.664;9.166;2023-04-30T05:23:07;7.03;;;5.03;;
18754;SDS011;35061;47.664;9.166;2023-04-30T05:25:35;6.10;;;5.50;;
18754;SDS011;35061;47.664;9.166;2023-04-30T05:28:03;5.62;;;5.03;;
18754;SDS011;35061;47.664;9.166;2023-04-30T05:30:33;6.20;;;5.60;;
18754;SDS011;35061;47.664;9.166;2023-04-30T05:33:01;6.03;;;5.50;;
18754;SDS011;35061;47.664;9.166;2023-04-30T05:35:29;7.43;;;5.20;;
18754;SDS011;35061;47.664;9.166;2023-04-30T05:37:58;6.25;;;4.95;;
18754;SDS011;35061;47.664;9.166;2023-04-30T05:40:26;6.40;;;5.43;;
18754;SDS011;35061;47.664;9.166;2023-04-30T05:42:54;6.60;;;5.12;;
18754;SDS011;35061;47.664;9.166;2023-04-30T05:45:23;5.40;;;4.90;;
18754;SDS011;35061;47.664;9.166;2023-04-30T05:47:51;5.32;;;4.80;;
18754;SDS011;35061;47.664;9.166;2023-04-30T05:50:19;7.07;;;5.15;;
18754;SDS011;35061;47.664;9.166;2023-04-30T05:52:47;5.65;;;4.87;;
18754;SDS011;35061;47.664;9.166;2023-04-30T05:55:14;5.40;;;4.90;;
18754;SDS011;35061;47.664;9.166;2023-04-30T05:57:43;5.80;;;5.20;;
18754;SDS011;35061;47.664;9.166;2023-04-30T06:00:11;5.55;;;4.85;;
18754;SDS011;35061;47.664;9.166;2023-04-30T06:02:39;5.47;;;4.75;;
18754;SDS011;35061;47.664;9.166;2023-04-30T06:05:07;5.70;;;5.10;;
18754;SDS011;35061;47.664;9.166;2023-04-30T06:07:36;6.50;;;5.45;;
18754;SDS011;35061;47.664;9.166;2023-04-30T06:10:04;6.28;;;5.03;;
18754;SDS011;35061;47.664;9.166;2023-04-30T06:12:33;5.87;;;5.30;;
18754;SDS011;35061;47.664;9.166;2023-04-30T06:15:01;5.22;;;4.72;;
18754;SDS011;35061;47.664;9.166;2023-04-30T06:17:29;5.70;;;5.10;;
18754;SDS011;35061;47.664;9.166;2023-04-30T06:19:58;6.22;;;5.32;;
18754;SDS011;35061;47.664;9.166;2023-04-30T06:22:29;6.05;;;5.45;;
18754;SDS011;35061;47.664;9.166;2023-04-30T06:24:57;5.85;;;5.20;;
18754;SDS011;35061;47.664;9.166;2023-04-30T06:27:25;6.40;;;5.22;;
18754;SDS011;35061;47.664;9.166;2023-04-30T06:29:56;5.75;;;4.97;;
18754;SDS011;35061;47.664;9.166;2023-04-30T06:32:23;6.32;;;5.70;;
18754;SDS011;35061;47.664;9.166;2023-04-30T06:34:51;6.15;;;5.47;;
18754;SDS011;35061;47.664;9.166;2023-04-30T06:37:19;6.40;;;5.45;;
18754;SDS011;35061;47.664;9.166;2023-04-30T06:39:48;6.78;;;5.80;;
18754;SDS011;35061;47.664;9.166;2023-04-30T06:42:16;6.68;;;5.60;;
18754;SDS011;35061;47.664;9.166;2023-04-30T06:44:44;7.05;;;5.68;;
18754;SDS011;35061;47.664;9.166;2023-04-30T06:47:13;6.03;;;5.43;;
18754;SDS011;35061;47.664;9.166;2023-04-30T06:49:41;7.05;;;5.62;;
18754;SDS011;35061;47.664;9.166;2023-04-30T06:52:09;7.95;;;5.95;;
18754;SDS011;35061;47.664;9.166;2023-04-30T06:54:37;6.28;;;5.68;;
18754;SDS011;35061;47.664;9.166;2023-04-30T06:57:05;8.60;;;6.12;;
18754;SDS011;35061;47.664;9.166;2023-04-30T06:59:33;7.05;;;5.97;;
18754;SDS011;35061;47.664;9.166;2023-04-30T07:02:01;7.18;;;5.93;;
18754;SDS011;35061;47.664;9.166;2023-04-30T07:04:30;6.00;;;5.40;;
18754;SDS011;35061;47.664;9.166;2023-04-30T07:06:58;5.00;;;4.50;;
18754;SDS011;35061;47.664;9.166;2023-04-30T07:09:28;5.93;;;4.75;;
18754;SDS011;35061;47.664;9.166;2023-04-30T07:11:56;6.53;;;5.72;;
18754;SDS011;35061;47.664;9.166;2023-04-30T07:14:25;7.57;;;5.18;;
18754;SDS011;35061;47.664;9.166;2023-04-30T07:16:54;6.45;;;5.40;;
18754;SDS011;35061;47.664;9.166;2023-04-30T07:19:22;5.62;;;5.05;;
18754;SDS011;35061;47.664;9.166;2023-04-30T07:21:53;6.20;;;5.60;;
18754;SDS011;35061;47.664;9.166;2023-04-30T07:24:21;5.57;;;5.07;;
18754;SDS011;35061;47.664;9.166;2023-04-30T07:26:49;6.15;;;5.55;;
18754;SDS011;35061;47.664;9.166;2023-04-30T07:29:17;5.90;;;5.15;;
18754;SDS011;35061;47.664;9.166;2023-04-30T07:31:45;7.05;;;4.80;;
18754;SDS011;35061;47.664;9.166;2023-04-30T07:34:13;5.30;;;4.80;;
18754;SDS011;35061;47.664;9.166;2023-04-30T07:36:41;5.90;;;5.30;;
18754;SDS011;35061;47.664;9.166;2023-04-30T07:39:09;6.07;;;5.20;;
18754;SDS011;35061;47.664;9.166;2023-04-30T07:41:38;4.95;;;4.50;;
18754;SDS011;35061;47.664;9.166;2023-04-30T07:44:06;5.55;;;5.05;;
18754;SDS011;35061;47.664;9.166;2023-04-30T07:46:33;5.72;;;4.93;;
18754;SDS011;35061;47.664;9.166;2023-04-30T07:49:03;6.28;;;5.07;;
18754;SDS011;35061;47.664;9.166;2023-04-30T07:51:31;4.80;;;4.40;;
18754;SDS011;35061;47.664;9.166;2023-04-30T07:53:59;5.32;;;4.82;;
18754;SDS011;35061;47.664;9.166;2023-04-30T07:56:27;5.18;;;4.65;;
18754;SDS011;35061;47.664;9.166;2023-04-30T07:58:55;5.85;;;4.60;;
18754;SDS011;35061;47.664;9.166;2023-04-30T08:01:23;5.07;;;4.57;;
18754;SDS011;35061;47.664;9.166;2023-04-30T08:03:51;4.90;;;4.40;;
18754;SDS011;35061;47.664;9.166;2023-04-30T08:06:19;5.47;;;4.30;;
18754;SDS011;35061;47.664;9.166;2023-04-30T08:08:47;5.32;;;4.75;;
18754;SDS011;35061;47.664;9.166;2023-04-30T08:11:15;5.05;;;4.45;;
18754;SDS011;35061;47.664;9.166;2023-04-30T08:13:43;5.97;;;4.87;;
18754;SDS011;35061;47.664;9.166;2023-04-30T08:16:11;5.15;;;4.75;;
18754;SDS011;35061;47.664;9.166;2023-04-30T08:18:39;5.37;;;4.82;;
18754;SDS011;35061;47.664;9.166;2023-04-30T08:21:11;5.12;;;4.53;;
18754;SDS011;35061;47.664;9.166;2023-04-30T08:23:40;4.07;;;3.78;;
18754;SDS011;35061;47.664;9.166;2023-04-30T08:26:08;4.03;;;3.72;;
18754;SDS011;35061;47.664;9.166;2023-04-30T08:28:36;3.87;;;3.58;;
18754;SDS011;35061;47.664;9.166;2023-04-30T08:31:04;4.68;;;4.28;;
18754;SDS011;35061;47.664;9.166;2023-04-30T08:33:32;5.03;;;3.25;;
18754;SDS011;35061;47.664;9.166;2023-04-30T08:36:00;4.93;;;3.50;;
18754;SDS011;35061;47.664;9.166;2023-04-30T08:38:28;4.37;;;3.83;;
18754;SDS011;35061;47.664;9.166;2023-04-30T08:41:01;4.15;;;3.40;;
18754;SDS011;35061;47.664;9.166;2023-04-30T08:43:35;3.87;;;3.22;;
18754;SDS011;35061;47.664;9.166;2023-04-30T08:46:04;3.58;;;2.95;;
18754;SDS011;35061;47.664;9.166;2023-04-30T08:48:32;2.83;;;2.53;;
18754;SDS011;35061;47.664;9.166;2023-04-30T08:51:01;4.12;;;3.00;;
18754;SDS011;35061;47.664;9.166;2023-04-30T08:53:30;4.95;;;3.10;;
18754;SDS011;35061;47.664;9.166;2023-04-30T08:56:02;4.03;;;2.95;;
18754;SDS011;35061;47.664;9.166;2023-04-30T08:58:31;3.75;;;2.85;;
18754;SDS011;35061;47.664;9.166;2023-04-30T09:01:00;3.97;;;3.10;;
18754;SDS011;35061;47.664;9.166;2023-04-30T09:03:29;3.12;;;2.60;;
18754;SDS011;35061;47.664;9.166;2023-04-30T09:05:58;3.55;;;2.62;;
18754;SDS011;35061;47.664;9.166;2023-04-30T09:08:42;3.15;;;2.85;;
18754;SDS011;35061;47.664;9.166;2023-04-30T09:11:19;4.10;;;3.55;;
18754;SDS011;35061;47.664;9.166;2023-04-30T09:13:57;3.12;;;2.83;;
18754;SDS011;35061;47.664;9.166;2023-04-30T09:16:27;3.33;;;3.03;;
18754;SDS011;35061;47.664;9.166;2023-04-30T09:18:59;3.37;;;3.08;;
18754;SDS011;35061;47.664;9.166;2023-04-30T09:24:03;3.53;;;2.75;;
18754;SDS011;35061;47.664;9.166;2023-04-30T09:26:33;2.65;;;2.30;;
18754;SDS011;35061;47.664;9.166;2023-04-30T09:29:03;3.40;;;3.10;;
18754;SDS011;35061;47.664;9.166;2023-04-30T09:31:35;2.83;;;2.62;;
18754;SDS011;35061;47.664;9.166;2023-04-30T09:34:04;2.90;;;2.70;;
18754;SDS011;35061;47.664;9.166;2023-04-30T09:36:33;3.08;;;2.55;;
18754;SDS011;35061;47.664;9.166;2023-04-30T09:39:05;3.17;;;2.67;;
18754;SDS011;35061;47.664;9.166;2023-04-30T09:41:37;2.67;;;2.47;;
18754;SDS011;35061;47.664;9.166;2023-04-30T09:44:06;2.67;;;2.47;;
18754;SDS011;35061;47.664;9.166;2023-04-30T09:46:34;3.67;;;2.85;;
18754;SDS011;35061;47.664;9.166;2023-04-30T09:49:05;3.28;;;2.45;;
18754;SDS011;35061;47.664;9.166;2023-04-30T09:51:34;2.90;;;2.30;;
18754;SDS011;35061;47.664;9.166;2023-04-30T09:54:02;2.80;;;2.60;;
18754;SDS011;35061;47.664;9.166;2023-04-30T09:56:31;3.15;;;2.70;;
18754;SDS011;35061;47.664;9.166;2023-04-30T09:59:04;2.67;;;2.28;;
18754;SDS011;35061;47.664;9.166;2023-04-30T10:01:35;3.45;;;2.22;;
18754;SDS011;35061;47.664;9.166;2023-04-30T10:04:06;3.03;;;2.33;;
18754;SDS011;35061;47.664;9.166;2023-04-30T10:06:34;2.62;;;2.37;;
18754;SDS011;35061;47.664;9.166;2023-04-30T10:09:03;3.15;;;2.85;;
18754;SDS011;35061;47.664;9.166;2023-04-30T10:11:32;2.95;;;2.40;;
18754;SDS011;35061;47.664;9.166;2023-04-30T10:14:09;2.70;;;2.50;;
18754;SDS011;35061;47.664;9.166;2023-04-30T10:16:56;2.55;;;2.35;;
18754;SDS011;35061;47.664;9.166;2023-04-30T10:19:30;3.20;;;2.37;;
18754;SDS011;35061;47.664;9.166;2023-04-30T10:22:01;3.03;;;2.53;;
18754;SDS011;35061;47.664;9.166;2023-04-30T10:24:29;2.65;;;2.45;;
18754;SDS011;35061;47.664;9.166;2023-04-30T10:26:57;2.50;;;2.30;;
18754;SDS011;35061;47.664;9.166;2023-04-30T10:29:26;3.20;;;2.20;;
18754;SDS011;35061;47.664;9.166;2023-04-30T10:31:54;3.12;;;2.40;;
18754;SDS011;35061;47.664;9.166;2023-04-30T10:34:45;2.37;;;2.17;;
18754;SDS011;35061;47.664;9.166;2023-04-30T10:40:12;2.47;;;2.28;;
18754;SDS011;35061;47.664;9.166;2023-04-30T10:42:52;2.50;;;2.30;;
18754;SDS011;35061;47.664;9.166;2023-04-30T10:45:36;2.30;;;2.10;;
18754;SDS011;35061;47.664;9.166;2023-04-30T10:48:07;2.85;;;2.28;;
18754;SDS011;35061;47.664;9.166;2023-04-30T10:50:40;3.08;;;2.60;;
18754;SDS011;35061;47.664;9.166;2023-04-30T10:53:12;2.78;;;2.58;;
18754;SDS011;35061;47.664;9.166;2023-04-30T10:55:52;2.20;;;2.00;;
18754;SDS011;35061;47.664;9.166;2023-04-30T11:01:16;2.75;;;2.53;;
18754;SDS011;35061;47.664;9.166;2023-04-30T11:06:48;2.08;;;1.98;;
18754;SDS011;35061;47.664;9.166;2023-04-30T11:09:35;2.80;;;2.40;;
18754;SDS011;35061;47.664;9.166;2023-04-30T11:12:12;3.58;;;2.35;;
18754;SDS011;35061;47.664;9.166;2023-04-30T11:14:48;2.80;;;2.50;;
18754;SDS011;35061;47.664;9.166;2023-04-30T11:17:20;2.95;;;2.75;;
18754;SDS011;35061;47.664;9.166;2023-04-30T11:19:51;3.62;;;2.33;;
18754;SDS011;35061;47.664;9.166;2023-04-30T11:22:21;2.33;;;2.12;;
18754;SDS011;35061;47.664;9.166;2023-04-30T11:27:36;2.53;;;2.33;;
18754;SDS011;35061;47.664;9.166;2023-04-30T11:30:13;2.12;;;1.92;;
18754;SDS011;35061;47.664;9.166;2023-04-30T11:32:43;2.40;;;1.75;;
18754;SDS011;35061;47.664;9.166;2023-04-30T11:35:16;2.17;;;1.98;;
18754;SDS011;35061;47.664;9.166;2023-04-30T11:37:46;2.30;;;2.10;;
18754;SDS011;35061;47.664;9.166;2023-04-30T11:40:15;2.30;;;2.10;;
18754;SDS011;35061;47.664;9.166;2023-04-30T11:42:43;2.35;;;2.15;;
18754;SDS011;35061;47.664;9.166;2023-04-30T11:45:12;2.60;;;2.40;;
18754;SDS011;35061;47.664;9.166;2023-04-30T11:47:45;2.60;;;2.40;;
18754;SDS011;35061;47.664;9.166;2023-04-30T11:50:15;4.40;;;2.78;;
18754;SDS011;35061;47.664;9.166;2023-04-30T11:52:48;2.95;;;2.58;;
18754;SDS011;35061;47.664;9.166;2023-04-30T11:55:18;2.40;;;2.20;;
18754;SDS011;35061;47.664;9.166;2023-04-30T11:57:48;2.28;;;2.08;;
18754;SDS011;35061;47.664;9.166;2023-04-30T12:00:19;2.25;;;1.90;;
18754;SDS011;35061;47.664;9.166;2023-04-30T12:02:48;2.95;;;2.12;;
18754;SDS011;35061;47.664;9.166;2023-04-30T12:05:17;2.22;;;2.03;;
18754;SDS011;35061;47.664;9.166;2023-04-30T12:07:53;2.08;;;1.98;;
18754;SDS011;35061;47.664;9.166;2023-04-30T12:10:21;2.30;;;2.10;;
18754;SDS011;35061;47.664;9.166;2023-04-30T12:12:51;2.40;;;2.20;;
18754;SDS011;35061;47.664;9.166;2023-04-30T12:15:21;2.15;;;1.98;;
18754;SDS011;35061;47.664;9.166;2023-04-30T12:17:56;2.25;;;2.05;;
18754;SDS011;35061;47.664;9.166;2023-04-30T12:20:26;1.90;;;1.80;;
18754;SDS011;35061;47.664;9.166;2023-04-30T12:22:55;2.45;;;1.87;;
18754;SDS011;35061;47.664;9.166;2023-04-30T12:25:25;1.95;;;1.83;;
18754;SDS011;35061;47.664;9.166;2023-04-30T12:27:57;1.80;;;1.70;;
18754;SDS011;35061;47.664;9.166;2023-04-30T12:30:26;1.73;;;1.62;;
18754;SDS011;35061;47.664;9.166;2023-04-30T12:32:57;2.47;;;1.80;;
18754;SDS011;35061;47.664;9.166;2023-04-30T12:35:27;2.10;;;1.90;;
18754;SDS011;35061;47.664;9.166;2023-04-30T12:38:04;2.12;;;1.92;;
18754;SDS011;35061;47.664;9.166;2023-04-30T12:40:36;2.10;;;1.90;;
18754;SDS011;35061;47.664;9.166;2023-04-30T12:43:05;1.70;;;1.60;;
18754;SDS011;35061;47.664;9.166;2023-04-30T12:45:44;1.95;;;1.77;;
18754;SDS011;35061;47.664;9.166;2023-04-30T12:48:20;2.12;;;1.90;;
18754;SDS011;35061;47.664;9.166;2023-04-30T12:50:51;1.80;;;1.70;;
18754;SDS011;35061;47.664;9.166;2023-04-30T12:53:19;2.22;;;1.67;;
18754;SDS011;35061;47.664;9.166;2023-04-30T12:58:38;1.65;;;1.52;;
18754;SDS011;35061;47.664;9.166;2023-04-30T13:01:10;2.10;;;1.90;;
18754;SDS011;35061;47.664;9.166;2023-04-30T13:03:39;1.87;;;1.77;;
18754;SDS011;35061;47.664;9.166;2023-04-30T13:06:08;1.80;;;1.70;;
18754;SDS011;35061;47.664;9.166;2023-04-30T13:08:37;1.83;;;1.73;;
18754;SDS011;35061;47.664;9.166;2023-04-30T13:11:22;2.60;;;1.73;;
18754;SDS011;35061;47.664;9.166;2023-04-30T13:13:52;1.80;;;1.70;;
18754;SDS011;35061;47.664;9.166;2023-04-30T13:16:22;1.77;;;1.67;;
18754;SDS011;35061;47.664;9.166;2023-04-30T13:18:51;2.58;;;1.58;;
18754;SDS011;35061;47.664;9.166;2023-04-30T13:21:19;1.98;;;1.77;;
18754;SDS011;35061;47.664;9.166;2023-04-30T13:23:48;2.20;;;2.00;;
18754;SDS011;35061;47.664;9.166;2023-04-30T13:26:20;2.22;;;2.10;;
18754;SDS011;35061;47.664;9.166;2023-04-30T13:28:49;1.62;;;1.52;;
18754;SDS011;35061;47.664;9.166;2023-04-30T13:31:17;1.90;;;1.80;;
18754;SDS011;35061;47.664;9.166;2023-04-30T13:33:46;1.90;;;1.80;;
18754;SDS011;35061;47.664;9.166;2023-04-30T13:36:14;1.77;;;1.60;;
18754;SDS011;35061;47.664;9.166;2023-04-30T13:38:42;1.90;;;1.80;;
18754;SDS011;35061;47.664;9.166;2023-04-30T13:41:10;1.75;;;1.65;;
18754;SDS011;35061;47.664;9.166;2023-04-30T13:43:38;1.73;;;1.62;;
18754;SDS011;35061;47.664;9.166;2023-04-30T13:46:08;2.28;;;2.10;;
18754;SDS011;35061;47.664;9.166;2023-04-30T13:48:36;2.28;;;2.12;;
18754;SDS011;35061;47.664;9.166;2023-04-30T13:51:04;3.90;;;2.40;;
18754;SDS011;35061;47.664;9.166;2023-04-30T13:53:32;1.98;;;1.87;;
18754;SDS011;35061;47.664;9.166;2023-04-30T13:56:02;2.05;;;1.87;;
18754;SDS011;35061;47.664;9.166;2023-04-30T13:58:30;2.00;;;1.80;;
18754;SDS011;35061;47.664;9.166;2023-04-30T14:00:58;2.50;;;1.60;;
18754;SDS011;35061;47.664;9.166;2023-04-30T14:03:26;1.70;;;1.60;;
18754;SDS011;35061;47.664;9.166;2023-04-30T14:05:54;1.90;;;1.80;;
18754;SDS011;35061;47.664;9.166;2023-04-30T14:08:22;2.08;;;1.90;;
18754;SDS011;35061;47.664;9.166;2023-04-30T14:10:50;3.83;;;1.85;;
18754;SDS011;35061;47.664;9.166;2023-04-30T14:13:18;1.92;;;1.83;;
18754;SDS011;35061;47.664;9.166;2023-04-30T14:15:46;1.70;;;1.60;;
18754;SDS011;35061;47.664;9.166;2023-04-30T14:18:14;2.35;;;2.10;;
18754;SDS011;35061;47.664;9.166;2023-04-30T14:20:42;2.12;;;1.73;;
18754;SDS011;35061;47.664;9.166;2023-04-30T14:23:10;2.22;;;2.08;;
18754;SDS011;35061;47.664;9.166;2023-04-30T14:25:39;1.98;;;1.75;;
18754;SDS011;35061;47.664;9.166;2023-04-30T14:28:07;2.50;;;1.83;;
18754;SDS011;35061;47.664;9.166;2023-04-30T14:30:35;2.00;;;1.80;;
18754;SDS011;35061;47.664;9.166;2023-04-30T14:33:03;2.67;;;1.75;;
18754;SDS011;35061;47.664;9.166;2023-04-30T14:35:32;1.73;;;1.62;;
18754;SDS011;35061;47.664;9.166;2023-04-30T14:38:00;1.90;;;1.80;;
18754;SDS011;35061;47.664;9.166;2023-04-30T14:40:28;2.00;;;1.73;;
18754;SDS011;35061;47.664;9.166;2023-04-30T14:42:56;1.65;;;1.55;;
18754;SDS011;35061;47.664;9.166;2023-04-30T14:45:24;2.00;;;1.80;;
18754;SDS011;35061;47.664;9.166;2023-04-30T14:47:54;1.98;;;1.83;;
18754;SDS011;35061;47.664;9.166;2023-04-30T14:50:23;2.95;;;1.73;;
18754;SDS011;35061;47.664;9.166;2023-04-30T14:52:51;2.30;;;1.75;;
18754;SDS011;35061;47.664;9.166;2023-04-30T14:55:18;3.17;;;2.30;;
18754;SDS011;35061;47.664;9.166;2023-04-30T14:57:47;2.03;;;1.92;;
18754;SDS011;35061;47.664;9.166;2023-04-30T15:00:15;2.30;;;2.10;;
18754;SDS011;35061;47.664;9.166;2023-04-30T15:02:43;1.85;;;1.75;;
18754;SDS011;35061;47.664;9.166;2023-04-30T15:05:11;3.08;;;1.92;;
18754;SDS011;35061;47.664;9.166;2023-04-30T15:07:39;2.15;;;1.95;;
18754;SDS011;35061;47.664;9.166;2023-04-30T15:10:07;1.75;;;1.65;;
18754;SDS011;35061;47.664;9.166;2023-04-30T15:12:36;2.37;;;2.15;;
18754;SDS011;35061;47.664;9.166;2023-04-30T15:15:04;2.37;;;2.00;;
18754;SDS011;35061;47.664;9.166;2023-04-30T15:17:33;2.53;;;1.80;;
18754;SDS011;35061;47.664;9.166;2023-04-30T15:20:03;2.08;;;1.83;;
18754;SDS011;35061;47.664;9.166;2023-04-30T15:22:33;2.03;;;1.90;;
18754;SDS011;35061;47.664;9.166;2023-04-30T15:25:01;2.00;;;1.80;;
18754;SDS011;35061;47.664;9.166;2023-04-30T15:27:29;2.30;;;2.10;;
18754;SDS011;35061;47.664;9.166;2023-04-30T15:29:59;2.08;;;1.87;;
18754;SDS011;35061;47.664;9.166;2023-04-30T15:32:27;2.12;;;1.92;;